Asheville Regional Airport (AVL)

 

Airport Diagram
Current Weather/Forecast (VFR Conditions)
METAR KAVL 210354Z AUTO 00000KT 10SM CLR 17/14 A3035 RMK AO2 SLP260 T01670144
TAF KAVL 202332Z 2100/2124 15005KT P6SM SKC FM211000 00000KT 6SM BR SCT015 TEMPO 2111/2113 1SM BR BKN005 FM211300 34003KT P6SM SCT030 FM211600 18003KT P6SM FEW050 FEW200

All Charts
General
Chart Name Download
AIRPORT DIAGRAM
TAKEOFF MINIMUMS
ALTERNATE MINIMUMS

Departures
Chart Name Download
ASHEVILLE FIVE

Approaches
Chart Name Download
ILS OR LOC RWY 35
RNAV (GPS) RWY 17
RNAV (GPS) RWY 35


Inbound Traffic (Arrivals)

No inbound traffic.


Outbound Traffic (Departures)

No outbound traffic.